sensor_id;sensor_type;location;lat;lon;timestamp;temperature;humidity
55091;DHT22;40985;53.180;5.800;2024-03-23T00:55:42;3.70;99.90
55091;DHT22;40985;53.180;5.800;2024-03-23T00:58:08;3.70;99.90
55091;DHT22;40985;53.180;5.800;2024-03-23T01:00:34;3.60;99.90
55091;DHT22;40985;53.180;5.800;2024-03-23T01:02:59;3.50;99.90
55091;DHT22;40985;53.180;5.800;2024-03-23T01:05:25;3.40;99.90
55091;DHT22;40985;53.180;5.800;2024-03-23T01:07:51;3.40;99.90
55091;DHT22;40985;53.180;5.800;2024-03-23T01:10:17;3.40;99.90
55091;DHT22;40985;53.180;5.800;2024-03-23T01:12:42;3.40;99.90
55091;DHT22;40985;53.180;5.800;2024-03-23T01:15:08;3.40;99.90
55091;DHT22;40985;53.180;5.800;2024-03-23T01:17:34;3.30;99.90
55091;DHT22;40985;53.180;5.800;2024-03-23T01:19:59;3.30;99.90
55091;DHT22;40985;53.180;5.800;2024-03-23T01:22:25;3.30;99.90
55091;DHT22;40985;53.180;5.800;2024-03-23T01:24:51;3.30;99.90
55091;DHT22;40985;53.180;5.800;2024-03-23T01:27:16;3.30;99.90
55091;DHT22;40985;53.180;5.800;2024-03-23T01:29:42;3.30;99.90
55091;DHT22;40985;53.180;5.800;2024-03-23T01:32:08;3.30;99.90
55091;DHT22;40985;53.180;5.800;2024-03-23T01:34:33;3.30;99.90
55091;DHT22;40985;53.180;5.800;2024-03-23T01:36:59;3.30;99.90
55091;DHT22;40985;53.180;5.800;2024-03-23T01:39:25;3.30;99.90
55091;DHT22;40985;53.180;5.800;2024-03-23T01:41:50;3.20;99.90
55091;DHT22;40985;53.180;5.800;2024-03-23T01:44:16;3.20;99.90
55091;DHT22;40985;53.180;5.800;2024-03-23T01:46:43;3.20;99.90
55091;DHT22;40985;53.180;5.800;2024-03-23T01:49:10;3.30;99.90
55091;DHT22;40985;53.180;5.800;2024-03-23T01:51:36;3.30;99.90
55091;DHT22;40985;53.180;5.800;2024-03-23T01:54:03;3.20;99.90
55091;DHT22;40985;53.180;5.800;2024-03-23T01:56:33;3.10;99.90
55091;DHT22;40985;53.180;5.800;2024-03-23T01:59:04;3.00;99.90
55091;DHT22;40985;53.180;5.800;2024-03-23T02:01:31;3.10;99.90
55091;DHT22;40985;53.180;5.800;2024-03-23T02:03:57;2.90;99.90
55091;DHT22;40985;53.180;5.800;2024-03-23T02:06:24;2.90;99.90
55091;DHT22;40985;53.180;5.800;2024-03-23T02:08:50;2.90;99.90
55091;DHT22;40985;53.180;5.800;2024-03-23T02:11:16;2.80;99.90
55091;DHT22;40985;53.180;5.800;2024-03-23T02:13:42;2.80;99.90
55091;DHT22;40985;53.180;5.800;2024-03-23T02:16:08;2.80;99.90
55091;DHT22;40985;53.180;5.800;2024-03-23T02:18:34;2.80;99.90
55091;DHT22;40985;53.180;5.800;2024-03-23T02:21:00;2.80;99.90
55091;DHT22;40985;53.180;5.800;2024-03-23T02:23:26;2.80;99.90
55091;DHT22;40985;53.180;5.800;2024-03-23T02:25:51;2.80;99.90
55091;DHT22;40985;53.180;5.800;2024-03-23T02:28:19;2.80;99.90
55091;DHT22;40985;53.180;5.800;2024-03-23T02:30:44;2.80;99.90
55091;DHT22;40985;53.180;5.800;2024-03-23T02:33:10;2.70;99.90
55091;DHT22;40985;53.180;5.800;2024-03-23T02:35:36;2.60;99.90
55091;DHT22;40985;53.180;5.800;2024-03-23T02:38:02;2.60;99.90
55091;DHT22;40985;53.180;5.800;2024-03-23T02:40:28;2.60;99.90
55091;DHT22;40985;53.180;5.800;2024-03-23T02:42:54;2.70;99.90
55091;DHT22;40985;53.180;5.800;2024-03-23T02:45:20;2.70;99.90
55091;DHT22;40985;53.180;5.800;2024-03-23T02:47:45;2.60;99.90
55091;DHT22;40985;53.180;5.800;2024-03-23T02:50:11;2.60;99.90
55091;DHT22;40985;53.180;5.800;2024-03-23T02:52:37;2.60;99.90
55091;DHT22;40985;53.180;5.800;2024-03-23T02:55:03;2.50;99.90
55091;DHT22;40985;53.180;5.800;2024-03-23T02:57:29;2.50;99.90
55091;DHT22;40985;53.180;5.800;2024-03-23T02:59:55;2.50;99.90
55091;DHT22;40985;53.180;5.800;2024-03-23T03:02:21;2.50;99.90
55091;DHT22;40985;53.180;5.800;2024-03-23T03:04:47;2.50;99.90
55091;DHT22;40985;53.180;5.800;2024-03-23T03:07:13;2.60;99.90
55091;DHT22;40985;53.180;5.800;2024-03-23T03:09:39;2.60;99.90
55091;DHT22;40985;53.180;5.800;2024-03-23T03:12:07;2.60;99.90
55091;DHT22;40985;53.180;5.800;2024-03-23T03:14:36;2.60;99.90
55091;DHT22;40985;53.180;5.800;2024-03-23T03:17:02;2.60;99.90
55091;DHT22;40985;53.180;5.800;2024-03-23T03:19:27;2.60;99.90
55091;DHT22;40985;53.180;5.800;2024-03-23T03:21:53;2.50;99.90
55091;DHT22;40985;53.180;5.800;2024-03-23T03:24:19;2.50;99.90
55091;DHT22;40985;53.180;5.800;2024-03-23T03:26:45;2.50;99.90
55091;DHT22;40985;53.180;5.800;2024-03-23T03:29:10;2.60;99.90
55091;DHT22;40985;53.180;5.800;2024-03-23T03:31:37;2.60;99.90
55091;DHT22;40985;53.180;5.800;2024-03-23T03:34:04;2.60;99.90
55091;DHT22;40985;53.180;5.800;2024-03-23T03:36:29;2.60;99.90
55091;DHT22;40985;53.180;5.800;2024-03-23T03:38:55;2.60;99.90
55091;DHT22;40985;53.180;5.800;2024-03-23T03:41:21;2.50;99.90
55091;DHT22;40985;53.180;5.800;2024-03-23T03:43:46;2.50;99.90
55091;DHT22;40985;53.180;5.800;2024-03-23T03:46:12;2.70;99.90
55091;DHT22;40985;53.180;5.800;2024-03-23T03:48:38;2.70;99.90
55091;DHT22;40985;53.180;5.800;2024-03-23T03:51:04;2.80;99.90
55091;DHT22;40985;53.180;5.800;2024-03-23T03:53:29;2.70;99.90
55091;DHT22;40985;53.180;5.800;2024-03-23T03:55:56;2.90;99.90
55091;DHT22;40985;53.180;5.800;2024-03-23T03:58:25;3.00;99.90
55091;DHT22;40985;53.180;5.800;2024-03-23T04:00:51;3.00;99.90
55091;DHT22;40985;53.180;5.800;2024-03-23T04:03:17;3.00;99.90
55091;DHT22;40985;53.180;5.800;2024-03-23T04:05:42;3.00;99.90
55091;DHT22;40985;53.180;5.800;2024-03-23T04:08:08;3.10;99.90
55091;DHT22;40985;53.180;5.800;2024-03-23T04:10:34;3.00;99.90
55091;DHT22;40985;53.180;5.800;2024-03-23T04:13:00;3.00;99.90
55091;DHT22;40985;53.180;5.800;2024-03-23T04:15:26;3.20;99.90
55091;DHT22;40985;53.180;5.800;2024-03-23T04:17:52;3.10;99.90
55091;DHT22;40985;53.180;5.800;2024-03-23T04:20:18;3.10;99.90
55091;DHT22;40985;53.180;5.800;2024-03-23T04:22:44;3.00;99.90
55091;DHT22;40985;53.180;5.800;2024-03-23T04:25:10;3.00;99.90
55091;DHT22;40985;53.180;5.800;2024-03-23T04:27:39;3.00;99.90
55091;DHT22;40985;53.180;5.800;2024-03-23T04:30:05;3.00;99.90
55091;DHT22;40985;53.180;5.800;2024-03-23T04:32:36;3.00;99.90
55091;DHT22;40985;53.180;5.800;2024-03-23T04:35:02;3.00;99.90
55091;DHT22;40985;53.180;5.800;2024-03-23T04:37:35;3.00;99.90
55091;DHT22;40985;53.180;5.800;2024-03-23T04:40:01;3.10;99.90
55091;DHT22;40985;53.180;5.800;2024-03-23T04:42:28;3.00;99.90
55091;DHT22;40985;53.180;5.800;2024-03-23T04:44:53;3.00;99.90
55091;DHT22;40985;53.180;5.800;2024-03-23T04:47:19;3.20;99.90
55091;DHT22;40985;53.180;5.800;2024-03-23T04:49:45;3.20;99.90
55091;DHT22;40985;53.180;5.800;2024-03-23T04:52:10;3.20;99.90
55091;DHT22;40985;53.180;5.800;2024-03-23T04:54:36;3.20;99.90
55091;DHT22;40985;53.180;5.800;2024-03-23T04:57:02;3.20;99.90
55091;DHT22;40985;53.180;5.800;2024-03-23T04:59:27;3.20;99.90
55091;DHT22;40985;53.180;5.800;2024-03-23T05:01:53;3.10;99.90
55091;DHT22;40985;53.180;5.800;2024-03-23T05:04:19;3.20;99.90
55091;DHT22;40985;53.180;5.800;2024-03-23T05:06:44;3.10;99.90
55091;DHT22;40985;53.180;5.800;2024-03-23T05:09:10;3.20;99.90
55091;DHT22;40985;53.180;5.800;2024-03-23T05:11:40;3.30;99.90
55091;DHT22;40985;53.180;5.800;2024-03-23T05:14:07;3.40;99.90
55091;DHT22;40985;53.180;5.800;2024-03-23T05:16:33;3.70;99.90
55091;DHT22;40985;53.180;5.800;2024-03-23T05:18:59;3.90;99.90
55091;DHT22;40985;53.180;5.800;2024-03-23T05:21:24;3.90;99.90
55091;DHT22;40985;53.180;5.800;2024-03-23T05:23:50;4.10;99.90
55091;DHT22;40985;53.180;5.800;2024-03-23T05:26:17;4.10;99.90
55091;DHT22;40985;53.180;5.800;2024-03-23T05:28:43;4.20;99.90
55091;DHT22;40985;53.180;5.800;2024-03-23T05:31:09;4.10;99.90
55091;DHT22;40985;53.180;5.800;2024-03-23T05:33:37;4.20;99.90
55091;DHT22;40985;53.180;5.800;2024-03-23T05:36:04;4.20;99.90
55091;DHT22;40985;53.180;5.800;2024-03-23T05:38:30;4.30;99.90
55091;DHT22;40985;53.180;5.800;2024-03-23T05:40:59;4.20;99.90
55091;DHT22;40985;53.180;5.800;2024-03-23T05:43:26;4.30;99.90
55091;DHT22;40985;53.180;5.800;2024-03-23T05:45:59;4.30;99.90
55091;DHT22;40985;53.180;5.800;2024-03-23T05:48:26;4.30;99.90
55091;DHT22;40985;53.180;5.800;2024-03-23T05:50:52;4.20;99.90
55091;DHT22;40985;53.180;5.800;2024-03-23T05:53:19;4.20;99.90
55091;DHT22;40985;53.180;5.800;2024-03-23T05:55:46;4.20;99.90
55091;DHT22;40985;53.180;5.800;2024-03-23T05:58:15;4.30;99.90
55091;DHT22;40985;53.180;5.800;2024-03-23T06:00:41;4.40;99.90
55091;DHT22;40985;53.180;5.800;2024-03-23T06:03:08;4.60;99.90
55091;DHT22;40985;53.180;5.800;2024-03-23T06:05:34;4.60;99.90
55091;DHT22;40985;53.180;5.800;2024-03-23T06:07:59;4.70;99.90
55091;DHT22;40985;53.180;5.800;2024-03-23T06:10:25;4.70;99.90
55091;DHT22;40985;53.180;5.800;2024-03-23T06:12:51;4.70;99.90
55091;DHT22;40985;53.180;5.800;2024-03-23T06:15:19;4.80;99.90
55091;DHT22;40985;53.180;5.800;2024-03-23T06:17:44;4.90;99.90
55091;DHT22;40985;53.180;5.800;2024-03-23T06:20:10;4.80;99.90
55091;DHT22;40985;53.180;5.800;2024-03-23T06:22:36;4.50;99.90
55091;DHT22;40985;53.180;5.800;2024-03-23T06:25:02;4.50;99.90
55091;DHT22;40985;53.180;5.800;2024-03-23T06:27:28;4.40;99.90
55091;DHT22;40985;53.180;5.800;2024-03-23T06:29:54;4.40;99.90
55091;DHT22;40985;53.180;5.800;2024-03-23T06:32:20;4.20;99.90
55091;DHT22;40985;53.180;5.800;2024-03-23T06:34:46;4.30;99.90
55091;DHT22;40985;53.180;5.800;2024-03-23T06:37:12;4.30;99.90
55091;DHT22;40985;53.180;5.800;2024-03-23T06:39:38;4.30;99.90
55091;DHT22;40985;53.180;5.800;2024-03-23T06:42:04;4.20;99.90
55091;DHT22;40985;53.180;5.800;2024-03-23T06:44:30;4.30;99.90
55091;DHT22;40985;53.180;5.800;2024-03-23T06:46:56;4.30;99.90
55091;DHT22;40985;53.180;5.800;2024-03-23T06:49:22;4.40;99.90
55091;DHT22;40985;53.180;5.800;2024-03-23T06:51:48;4.40;99.90
55091;DHT22;40985;53.180;5.800;2024-03-23T06:54:14;4.40;99.90
55091;DHT22;40985;53.180;5.800;2024-03-23T06:56:40;4.40;99.90
55091;DHT22;40985;53.180;5.800;2024-03-23T06:59:06;4.40;99.90
55091;DHT22;40985;53.180;5.800;2024-03-23T07:01:32;4.50;99.90
55091;DHT22;40985;53.180;5.800;2024-03-23T07:03:57;4.50;99.90
55091;DHT22;40985;53.180;5.800;2024-03-23T07:06:23;4.70;99.90
55091;DHT22;40985;53.180;5.800;2024-03-23T07:08:49;4.80;99.90
55091;DHT22;40985;53.180;5.800;2024-03-23T07:11:24;5.10;99.90
55091;DHT22;40985;53.180;5.800;2024-03-23T07:13:51;5.30;99.90
55091;DHT22;40985;53.180;5.800;2024-03-23T07:16:17;5.50;99.90
55091;DHT22;40985;53.180;5.800;2024-03-23T07:18:44;5.60;99.90
55091;DHT22;40985;53.180;5.800;2024-03-23T07:21:09;5.70;99.90
55091;DHT22;40985;53.180;5.800;2024-03-23T07:23:35;5.70;99.90
55091;DHT22;40985;53.180;5.800;2024-03-23T07:26:04;5.70;99.90
55091;DHT22;40985;53.180;5.800;2024-03-23T07:28:33;5.70;99.90
55091;DHT22;40985;53.180;5.800;2024-03-23T07:33:40;5.60;99.90
55091;DHT22;40985;53.180;5.800;2024-03-23T07:36:07;5.70;99.90
55091;DHT22;40985;53.180;5.800;2024-03-23T07:38:32;5.70;99.90
55091;DHT22;40985;53.180;5.800;2024-03-23T07:41:08;5.80;99.90
55091;DHT22;40985;53.180;5.800;2024-03-23T07:43:35;5.90;99.90
55091;DHT22;40985;53.180;5.800;2024-03-23T07:46:01;5.90;99.90
55091;DHT22;40985;53.180;5.800;2024-03-23T07:48:28;6.00;99.90
55091;DHT22;40985;53.180;5.800;2024-03-23T07:51:07;6.10;99.90
55091;DHT22;40985;53.180;5.800;2024-03-23T07:53:34;6.20;99.90
55091;DHT22;40985;53.180;5.800;2024-03-23T07:56:06;6.30;99.90
55091;DHT22;40985;53.180;5.800;2024-03-23T07:58:32;6.50;99.90
55091;DHT22;40985;53.180;5.800;2024-03-23T08:01:09;6.50;99.90
55091;DHT22;40985;53.180;5.800;2024-03-23T08:03:39;6.60;99.90
55091;DHT22;40985;53.180;5.800;2024-03-23T08:06:14;6.60;99.90
55091;DHT22;40985;53.180;5.800;2024-03-23T08:08:42;6.50;99.90
55091;DHT22;40985;53.180;5.800;2024-03-23T08:11:08;6.50;99.90
55091;DHT22;40985;53.180;5.800;2024-03-23T08:13:34;6.50;99.90
55091;DHT22;40985;53.180;5.800;2024-03-23T08:16:01;6.50;99.90
55091;DHT22;40985;53.180;5.800;2024-03-23T08:18:28;6.60;99.90
55091;DHT22;40985;53.180;5.800;2024-03-23T08:23:26;6.80;99.90
55091;DHT22;40985;53.180;5.800;2024-03-23T08:25:54;6.90;99.90
55091;DHT22;40985;53.180;5.800;2024-03-23T08:28:22;7.10;99.90
55091;DHT22;40985;53.180;5.800;2024-03-23T08:30:48;7.30;99.90
55091;DHT22;40985;53.180;5.800;2024-03-23T08:33:15;7.20;99.90
55091;DHT22;40985;53.180;5.800;2024-03-23T08:35:41;7.20;99.90
55091;DHT22;40985;53.180;5.800;2024-03-23T08:38:07;7.20;99.90
55091;DHT22;40985;53.180;5.800;2024-03-23T08:40:33;7.40;99.90
55091;DHT22;40985;53.180;5.800;2024-03-23T08:42:58;7.00;99.90
55091;DHT22;40985;53.180;5.800;2024-03-23T08:45:27;6.20;99.90
55091;DHT22;40985;53.180;5.800;2024-03-23T08:47:52;5.90;99.90
55091;DHT22;40985;53.180;5.800;2024-03-23T08:50:18;5.70;99.90
55091;DHT22;40985;53.180;5.800;2024-03-23T08:52:44;5.70;99.90
55091;DHT22;40985;53.180;5.800;2024-03-23T08:55:10;5.80;99.90
55091;DHT22;40985;53.180;5.800;2024-03-23T08:57:35;5.80;99.90
55091;DHT22;40985;53.180;5.800;2024-03-23T09:00:02;5.80;99.90
55091;DHT22;40985;53.180;5.800;2024-03-23T09:02:28;5.60;99.90
55091;DHT22;40985;53.180;5.800;2024-03-23T09:04:53;5.10;99.90
55091;DHT22;40985;53.180;5.800;2024-03-23T09:07:19;5.00;99.90
55091;DHT22;40985;53.180;5.800;2024-03-23T09:09:45;4.90;99.90
55091;DHT22;40985;53.180;5.800;2024-03-23T09:12:10;5.00;99.90
55091;DHT22;40985;53.180;5.800;2024-03-23T09:14:36;5.30;99.90
55091;DHT22;40985;53.180;5.800;2024-03-23T09:17:02;5.60;99.90
55091;DHT22;40985;53.180;5.800;2024-03-23T09:19:29;6.00;99.90
55091;DHT22;40985;53.180;5.800;2024-03-23T09:21:55;6.30;99.90
55091;DHT22;40985;53.180;5.800;2024-03-23T09:24:21;6.50;99.90
55091;DHT22;40985;53.180;5.800;2024-03-23T09:26:46;6.80;99.90
55091;DHT22;40985;53.180;5.800;2024-03-23T09:29:12;7.10;99.90
55091;DHT22;40985;53.180;5.800;2024-03-23T09:31:39;7.40;99.90
55091;DHT22;40985;53.180;5.800;2024-03-23T09:34:06;7.20;99.90
55091;DHT22;40985;53.180;5.800;2024-03-23T09:36:32;7.10;99.90
55091;DHT22;40985;53.180;5.800;2024-03-23T09:38:57;7.20;99.90
55091;DHT22;40985;53.180;5.800;2024-03-23T09:41:23;7.20;99.90
55091;DHT22;40985;53.180;5.800;2024-03-23T09:43:52;7.00;99.90
55091;DHT22;40985;53.180;5.800;2024-03-23T09:46:17;6.50;99.90
55091;DHT22;40985;53.180;5.800;2024-03-23T09:48:43;6.10;99.90
55091;DHT22;40985;53.180;5.800;2024-03-23T09:51:11;6.00;99.90
55091;DHT22;40985;53.180;5.800;2024-03-23T09:53:37;6.10;99.90
55091;DHT22;40985;53.180;5.800;2024-03-23T09:56:04;6.40;99.90
55091;DHT22;40985;53.180;5.800;2024-03-23T09:58:30;6.60;99.90
55091;DHT22;40985;53.180;5.800;2024-03-23T10:00:57;7.00;99.90
55091;DHT22;40985;53.180;5.800;2024-03-23T10:03:23;7.30;99.90
55091;DHT22;40985;53.180;5.800;2024-03-23T10:06:03;7.30;99.90
55091;DHT22;40985;53.180;5.800;2024-03-23T10:08:29;7.30;99.90
55091;DHT22;40985;53.180;5.800;2024-03-23T10:10:56;7.20;99.90
55091;DHT22;40985;53.180;5.800;2024-03-23T10:13:27;7.00;99.90
55091;DHT22;40985;53.180;5.800;2024-03-23T10:15:56;7.00;99.90
55091;DHT22;40985;53.180;5.800;2024-03-23T10:18:23;7.00;99.90
55091;DHT22;40985;53.180;5.800;2024-03-23T10:21:07;6.80;99.90
55091;DHT22;40985;53.180;5.800;2024-03-23T10:23:38;6.60;99.90
55091;DHT22;40985;53.180;5.800;2024-03-23T10:26:24;6.20;99.90
55091;DHT22;40985;53.180;5.800;2024-03-23T10:28:58;6.00;99.90
55091;DHT22;40985;53.180;5.800;2024-03-23T10:31:28;6.20;99.90
55091;DHT22;40985;53.180;5.800;2024-03-23T10:33:54;6.40;99.90
55091;DHT22;40985;53.180;5.800;2024-03-23T10:36:23;6.50;99.90
55091;DHT22;40985;53.180;5.800;2024-03-23T10:38:50;6.60;99.90
55091;DHT22;40985;53.180;5.800;2024-03-23T10:41:17;6.90;99.90
55091;DHT22;40985;53.180;5.800;2024-03-23T10:43:45;7.10;99.90
55091;DHT22;40985;53.180;5.800;2024-03-23T10:46:11;7.30;99.90
55091;DHT22;40985;53.180;5.800;2024-03-23T10:48:37;7.60;99.90
55091;DHT22;40985;53.180;5.800;2024-03-23T10:51:04;7.60;99.90
55091;DHT22;40985;53.180;5.800;2024-03-23T10:53:33;7.80;99.90
55091;DHT22;40985;53.180;5.800;2024-03-23T10:55:59;8.00;99.90
55091;DHT22;40985;53.180;5.800;2024-03-23T10:58:45;7.70;99.90
55091;DHT22;40985;53.180;5.800;2024-03-23T11:01:12;7.50;99.90
55091;DHT22;40985;53.180;5.800;2024-03-23T11:03:39;7.50;99.90
55091;DHT22;40985;53.180;5.800;2024-03-23T11:06:09;7.60;99.90
55091;DHT22;40985;53.180;5.800;2024-03-23T11:08:39;7.50;99.90
55091;DHT22;40985;53.180;5.800;2024-03-23T11:13:51;6.90;99.90
55091;DHT22;40985;53.180;5.800;2024-03-23T11:18:47;6.50;99.90
55091;DHT22;40985;53.180;5.800;2024-03-23T11:24:15;6.90;99.90
55091;DHT22;40985;53.180;5.800;2024-03-23T11:26:41;7.30;99.90
55091;DHT22;40985;53.180;5.800;2024-03-23T11:29:11;7.30;99.90
55091;DHT22;40985;53.180;5.800;2024-03-23T11:31:50;6.90;99.90
55091;DHT22;40985;53.180;5.800;2024-03-23T11:34:20;6.80;99.90
55091;DHT22;40985;53.180;5.800;2024-03-23T11:36:46;6.50;99.90
55091;DHT22;40985;53.180;5.800;2024-03-23T11:39:17;6.80;99.90
55091;DHT22;40985;53.180;5.800;2024-03-23T11:41:56;6.90;99.90
55091;DHT22;40985;53.180;5.800;2024-03-23T11:44:24;7.10;99.90
55091;DHT22;40985;53.180;5.800;2024-03-23T11:46:51;7.30;99.90
55091;DHT22;40985;53.180;5.800;2024-03-23T11:51:49;7.20;99.90
55091;DHT22;40985;53.180;5.800;2024-03-23T11:54:15;7.20;99.90
55091;DHT22;40985;53.180;5.800;2024-03-23T11:56:54;7.30;99.90
55091;DHT22;40985;53.180;5.800;2024-03-23T11:59:40;7.30;99.90
55091;DHT22;40985;53.180;5.800;2024-03-23T12:02:12;7.30;99.90
55091;DHT22;40985;53.180;5.800;2024-03-23T12:04:41;7.10;99.90
55091;DHT22;40985;53.180;5.800;2024-03-23T12:07:18;7.00;99.90
55091;DHT22;40985;53.180;5.800;2024-03-23T12:09:45;6.60;99.90
55091;DHT22;40985;53.180;5.800;2024-03-23T12:12:14;6.50;99.90
55091;DHT22;40985;53.180;5.800;2024-03-23T12:14:41;6.30;99.90
55091;DHT22;40985;53.180;5.800;2024-03-23T12:17:14;6.40;99.90
55091;DHT22;40985;53.180;5.800;2024-03-23T12:19:40;6.30;99.90
55091;DHT22;40985;53.180;5.800;2024-03-23T12:22:09;6.50;99.90
55091;DHT22;40985;53.180;5.800;2024-03-23T12:24:35;6.60;99.90
55091;DHT22;40985;53.180;5.800;2024-03-23T12:27:05;6.70;99.90
55091;DHT22;40985;53.180;5.800;2024-03-23T12:29:31;6.60;99.90
55091;DHT22;40985;53.180;5.800;2024-03-23T12:32:05;6.80;99.90
55091;DHT22;40985;53.180;5.800;2024-03-23T12:34:32;7.10;99.90
55091;DHT22;40985;53.180;5.800;2024-03-23T12:36:57;7.10;99.90
55091;DHT22;40985;53.180;5.800;2024-03-23T12:39:23;7.10;99.90
55091;DHT22;40985;53.180;5.800;2024-03-23T12:41:49;7.10;99.90
55091;DHT22;40985;53.180;5.800;2024-03-23T12:44:15;7.00;99.90
55091;DHT22;40985;53.180;5.800;2024-03-23T12:46:41;7.10;99.90
55091;DHT22;40985;53.180;5.800;2024-03-23T12:49:07;7.10;99.90
55091;DHT22;40985;53.180;5.800;2024-03-23T12:51:33;6.90;99.90
55091;DHT22;40985;53.180;5.800;2024-03-23T12:53:59;6.80;99.90
55091;DHT22;40985;53.180;5.800;2024-03-23T12:56:25;6.90;99.90
55091;DHT22;40985;53.180;5.800;2024-03-23T12:58:51;7.30;99.90
55091;DHT22;40985;53.180;5.800;2024-03-23T13:01:20;7.20;99.90
55091;DHT22;40985;53.180;5.800;2024-03-23T13:03:49;6.40;99.90
55091;DHT22;40985;53.180;5.800;2024-03-23T13:06:15;5.90;99.90
55091;DHT22;40985;53.180;5.800;2024-03-23T13:08:44;5.70;99.90
55091;DHT22;40985;53.180;5.800;2024-03-23T13:11:10;5.60;99.90
55091;DHT22;40985;53.180;5.800;2024-03-23T13:13:36;5.70;99.90
55091;DHT22;40985;53.180;5.800;2024-03-23T13:16:02;5.60;99.90
55091;DHT22;40985;53.180;5.800;2024-03-23T13:18:29;5.50;99.90
55091;DHT22;40985;53.180;5.800;2024-03-23T13:20:55;5.50;99.90
55091;DHT22;40985;53.180;5.800;2024-03-23T13:23:21;5.60;99.90
55091;DHT22;40985;53.180;5.800;2024-03-23T13:25:55;5.70;99.90
55091;DHT22;40985;53.180;5.800;2024-03-23T13:28:23;5.60;99.90
55091;DHT22;40985;53.180;5.800;2024-03-23T13:30:54;5.40;99.90
55091;DHT22;40985;53.180;5.800;2024-03-23T13:33:20;5.50;99.90
55091;DHT22;40985;53.180;5.800;2024-03-23T13:35:52;5.60;99.90
55091;DHT22;40985;53.180;5.800;2024-03-23T13:38:19;5.60;99.90
55091;DHT22;40985;53.180;5.800;2024-03-23T13:40:55;6.00;99.90
55091;DHT22;40985;53.180;5.800;2024-03-23T13:43:22;6.00;99.90
55091;DHT22;40985;53.180;5.800;2024-03-23T13:45:50;6.40;99.90
55091;DHT22;40985;53.180;5.800;2024-03-23T13:48:22;6.70;99.90
55091;DHT22;40985;53.180;5.800;2024-03-23T13:51:00;6.80;99.90
55091;DHT22;40985;53.180;5.800;2024-03-23T13:53:26;7.20;99.90
55091;DHT22;40985;53.180;5.800;2024-03-23T13:55:51;7.10;99.90
55091;DHT22;40985;53.180;5.800;2024-03-23T13:58:17;7.00;99.90
55091;DHT22;40985;53.180;5.800;2024-03-23T14:00:43;6.90;99.90
55091;DHT22;40985;53.180;5.800;2024-03-23T14:03:09;7.00;99.90
55091;DHT22;40985;53.180;5.800;2024-03-23T14:05:36;7.20;99.90
55091;DHT22;40985;53.180;5.800;2024-03-23T14:08:01;7.10;99.90
55091;DHT22;40985;53.180;5.800;2024-03-23T14:10:27;7.20;99.90
55091;DHT22;40985;53.180;5.800;2024-03-23T14:12:53;7.00;99.90
55091;DHT22;40985;53.180;5.800;2024-03-23T14:15:19;7.00;99.90
55091;DHT22;40985;53.180;5.800;2024-03-23T14:17:45;6.90;99.90
55091;DHT22;40985;53.180;5.800;2024-03-23T14:20:11;6.80;99.90
55091;DHT22;40985;53.180;5.800;2024-03-23T14:22:37;7.10;99.90
55091;DHT22;40985;53.180;5.800;2024-03-23T14:25:03;7.50;99.90
55091;DHT22;40985;53.180;5.800;2024-03-23T14:27:29;7.60;99.90
55091;DHT22;40985;53.180;5.800;2024-03-23T14:29:55;7.40;99.90
55091;DHT22;40985;53.180;5.800;2024-03-23T14:32:22;7.10;99.90
55091;DHT22;40985;53.180;5.800;2024-03-23T14:34:48;7.10;99.90
55091;DHT22;40985;53.180;5.800;2024-03-23T14:37:13;7.30;99.90
55091;DHT22;40985;53.180;5.800;2024-03-23T14:39:41;7.50;99.90
55091;DHT22;40985;53.180;5.800;2024-03-23T14:42:07;7.70;99.90
55091;DHT22;40985;53.180;5.800;2024-03-23T14:44:36;7.90;99.90
55091;DHT22;40985;53.180;5.800;2024-03-23T14:47:01;8.10;99.90
55091;DHT22;40985;53.180;5.800;2024-03-23T14:49:27;8.20;99.90
55091;DHT22;40985;53.180;5.800;2024-03-23T14:51:53;8.00;99.90
55091;DHT22;40985;53.180;5.800;2024-03-23T14:54:18;8.10;99.90
55091;DHT22;40985;53.180;5.800;2024-03-23T14:56:44;8.20;99.90
55091;DHT22;40985;53.180;5.800;2024-03-23T14:59:10;8.30;99.90
55091;DHT22;40985;53.180;5.800;2024-03-23T15:01:35;8.10;99.90
55091;DHT22;40985;53.180;5.800;2024-03-23T15:04:01;8.20;99.90
55091;DHT22;40985;53.180;5.800;2024-03-23T15:06:27;8.00;99.90
55091;DHT22;40985;53.180;5.800;2024-03-23T15:08:52;7.70;99.90
55091;DHT22;40985;53.180;5.800;2024-03-23T15:11:20;7.80;99.90
55091;DHT22;40985;53.180;5.800;2024-03-23T15:13:45;7.90;99.90
55091;DHT22;40985;53.180;5.800;2024-03-23T15:16:17;8.10;99.90
55091;DHT22;40985;53.180;5.800;2024-03-23T15:18:45;8.10;99.90
55091;DHT22;40985;53.180;5.800;2024-03-23T15:21:11;8.10;99.90
55091;DHT22;40985;53.180;5.800;2024-03-23T15:23:37;8.00;99.90
55091;DHT22;40985;53.180;5.800;2024-03-23T15:26:04;8.00;99.90
55091;DHT22;40985;53.180;5.800;2024-03-23T15:28:31;7.90;99.90
55091;DHT22;40985;53.180;5.800;2024-03-23T15:31:08;7.80;99.90
55091;DHT22;40985;53.180;5.800;2024-03-23T15:33:35;7.60;99.90
55091;DHT22;40985;53.180;5.800;2024-03-23T15:36:04;7.50;99.90
55091;DHT22;40985;53.180;5.800;2024-03-23T15:38:33;7.50;99.90
55091;DHT22;40985;53.180;5.800;2024-03-23T15:40:59;7.50;99.90
55091;DHT22;40985;53.180;5.800;2024-03-23T15:43:26;7.40;99.90
55091;DHT22;40985;53.180;5.800;2024-03-23T15:48:21;7.30;99.90
55091;DHT22;40985;53.180;5.800;2024-03-23T15:51:03;7.40;99.90
55091;DHT22;40985;53.180;5.800;2024-03-23T15:53:31;7.60;99.90
55091;DHT22;40985;53.180;5.800;2024-03-23T15:55:59;7.60;99.90
55091;DHT22;40985;53.180;5.800;2024-03-23T15:58:25;7.60;99.90
55091;DHT22;40985;53.180;5.800;2024-03-23T16:00:56;7.50;99.90
55091;DHT22;40985;53.180;5.800;2024-03-23T16:03:22;7.50;99.90
55091;DHT22;40985;53.180;5.800;2024-03-23T16:05:54;7.50;99.90
55091;DHT22;40985;53.180;5.800;2024-03-23T16:08:21;7.40;99.90
55091;DHT22;40985;53.180;5.800;2024-03-23T16:10:47;7.30;99.90
55091;DHT22;40985;53.180;5.800;2024-03-23T16:13:13;7.30;99.90
55091;DHT22;40985;53.180;5.800;2024-03-23T16:15:38;7.20;99.90
55091;DHT22;40985;53.180;5.800;2024-03-23T16:18:04;7.20;99.90
55091;DHT22;40985;53.180;5.800;2024-03-23T16:20:30;7.20;99.90
55091;DHT22;40985;53.180;5.800;2024-03-23T16:22:59;7.30;99.90
55091;DHT22;40985;53.180;5.800;2024-03-23T16:25:24;7.30;99.90
55091;DHT22;40985;53.180;5.800;2024-03-23T16:27:50;7.20;99.90
55091;DHT22;40985;53.180;5.800;2024-03-23T16:30:16;7.10;99.90
55091;DHT22;40985;53.180;5.800;2024-03-23T16:32:42;7.10;99.90
55091;DHT22;40985;53.180;5.800;2024-03-23T16:35:07;7.10;99.90
55091;DHT22;40985;53.180;5.800;2024-03-23T16:37:37;7.10;99.90
55091;DHT22;40985;53.180;5.800;2024-03-23T16:40:02;7.10;99.90
55091;DHT22;40985;53.180;5.800;2024-03-23T16:42:28;7.00;99.90
55091;DHT22;40985;53.180;5.800;2024-03-23T16:44:54;7.00;99.90
55091;DHT22;40985;53.180;5.800;2024-03-23T16:47:20;7.00;99.90
55091;DHT22;40985;53.180;5.800;2024-03-23T16:49:45;7.00;99.90
55091;DHT22;40985;53.180;5.800;2024-03-23T16:52:11;7.00;99.90
55091;DHT22;40985;53.180;5.800;2024-03-23T16:54:37;7.10;99.90
55091;DHT22;40985;53.180;5.800;2024-03-23T16:57:03;7.10;99.90